createdAt,value
2023-01-17T00:02:08.002Z,10.20
2023-01-17T00:04:53.788Z,10.30
2023-01-17T00:07:40.309Z,10.90
2023-01-17T00:10:09.946Z,10.00
2023-01-17T00:12:37.283Z,10.60
2023-01-17T00:15:04.838Z,10.50
2023-01-17T00:17:32.074Z,9.50
2023-01-17T00:20:20.007Z,10.70
2023-01-17T00:23:06.111Z,10.90
2023-01-17T00:25:53.348Z,10.00
2023-01-17T00:28:20.395Z,11.10
2023-01-17T00:30:47.451Z,9.60
2023-01-17T00:33:14.558Z,10.20
2023-01-17T00:35:41.707Z,10.00
2023-01-17T00:38:09.577Z,11.60
2023-01-17T00:40:38.889Z,10.30
2023-01-17T00:43:25.178Z,11.70
2023-01-17T00:46:11.146Z,10.40
2023-01-17T00:48:57.883Z,11.40
2023-01-17T00:51:43.906Z,11.50
2023-01-17T00:54:29.893Z,11.10
2023-01-17T00:57:15.543Z,10.50
2023-01-17T01:00:01.430Z,10.30
2023-01-17T01:02:47.260Z,11.00
2023-01-17T01:05:33.145Z,12.10
2023-01-17T01:08:19.492Z,9.80
2023-01-17T01:11:06.020Z,10.80
2023-01-17T01:13:51.760Z,10.70
2023-01-17T01:16:38.095Z,10.70
2023-01-17T01:19:24.310Z,10.60
2023-01-17T01:22:10.098Z,10.60
2023-01-17T01:24:55.800Z,10.90
2023-01-17T01:27:42.081Z,9.30
2023-01-17T01:30:28.163Z,9.90
2023-01-17T01:33:13.948Z,8.50
2023-01-17T01:35:42.230Z,8.80
2023-01-17T01:38:09.276Z,9.40
2023-01-17T01:40:42.423Z,9.50
2023-01-17T01:43:09.615Z,9.20
2023-01-17T01:45:36.810Z,9.50
2023-01-17T01:48:13.232Z,8.80
2023-01-17T01:50:40.486Z,8.30
2023-01-17T01:53:07.539Z,9.00
2023-01-17T01:55:41.100Z,8.40
2023-01-17T01:58:13.739Z,8.90
2023-01-17T02:00:41.230Z,9.50
2023-01-17T02:03:14.545Z,10.20
2023-01-17T02:05:42.945Z,9.60
2023-01-17T02:08:15.593Z,9.50
2023-01-17T02:10:44.216Z,9.60
2023-01-17T02:13:12.807Z,9.80
2023-01-17T02:15:58.205Z,9.20
2023-01-17T02:18:47.717Z,10.50
2023-01-17T02:21:17.833Z,10.20
2023-01-17T02:24:03.858Z,9.60
2023-01-17T02:26:42.675Z,10.00
2023-01-17T02:29:34.735Z,10.50
2023-01-17T02:32:31.005Z,11.00
2023-01-17T02:35:01.296Z,10.50
2023-01-17T02:37:56.608Z,10.80
2023-01-17T02:40:27.351Z,10.70
2023-01-17T02:43:00.888Z,10.80
2023-01-17T02:45:28.187Z,12.40
2023-01-17T02:47:55.323Z,10.60
2023-01-17T02:50:24.413Z,10.10
2023-01-17T02:53:13.590Z,11.10
2023-01-17T02:55:47.955Z,11.60
2023-01-17T02:58:18.037Z,10.90
2023-01-17T03:00:59.864Z,10.90
2023-01-17T03:03:33.496Z,11.50
2023-01-17T03:06:13.665Z,12.40
2023-01-17T03:08:43.084Z,11.70
2023-01-17T03:11:10.751Z,13.40
2023-01-17T03:13:37.892Z,10.50
2023-01-17T03:16:07.143Z,12.20
2023-01-17T03:26:37.202Z,11.60
2023-01-17T03:29:04.220Z,13.00
2023-01-17T03:31:31.458Z,13.10
2023-01-17T03:33:58.609Z,12.50
2023-01-17T03:36:25.757Z,10.90
2023-01-17T03:38:52.845Z,12.30
2023-01-17T03:41:19.919Z,11.80
2023-01-17T03:43:47.053Z,12.60
2023-01-17T03:46:22.711Z,12.60
2023-01-17T03:48:50.429Z,11.90
2023-01-17T03:51:17.975Z,11.70
2023-01-17T03:53:47.099Z,13.80
2023-01-17T03:56:14.755Z,12.40
2023-01-17T03:58:42.256Z,13.40
2023-01-17T04:01:09.602Z,14.60
2023-01-17T04:03:36.902Z,13.80
2023-01-17T04:06:04.259Z,13.60
2023-01-17T04:08:31.729Z,12.10
2023-01-17T04:10:58.962Z,14.20
2023-01-17T04:13:26.333Z,16.60
2023-01-17T04:15:53.489Z,14.90
2023-01-17T04:18:36.195Z,16.00
2023-01-17T04:21:03.280Z,16.60
2023-01-17T04:23:30.383Z,16.10
2023-01-17T04:25:57.453Z,17.40
2023-01-17T04:28:24.586Z,17.70
2023-01-17T04:30:51.655Z,16.80
2023-01-17T04:33:18.892Z,16.10
2023-01-17T04:35:46.034Z,16.50
2023-01-17T04:38:13.077Z,14.90
2023-01-17T04:40:40.126Z,16.00
2023-01-17T04:43:07.157Z,17.20
2023-01-17T04:45:34.541Z,16.70
2023-01-17T04:48:05.783Z,18.00
2023-01-17T04:50:33.133Z,17.30
2023-01-17T04:53:00.756Z,18.90
2023-01-17T04:55:28.095Z,20.30
2023-01-17T04:57:55.203Z,20.50
2023-01-17T05:00:24.132Z,21.30
2023-01-17T05:02:52.449Z,20.20
2023-01-17T05:05:19.810Z,21.00
2023-01-17T05:07:56.266Z,20.20
2023-01-17T05:10:23.653Z,23.60
2023-01-17T05:12:57.488Z,23.70
2023-01-17T05:15:24.917Z,24.60
2023-01-17T05:17:52.797Z,21.80
2023-01-17T05:20:21.173Z,22.70
2023-01-17T05:22:57.676Z,24.40
2023-01-17T05:25:26.114Z,22.80
2023-01-17T05:27:53.192Z,22.70
2023-01-17T05:30:20.764Z,21.70
2023-01-17T05:32:52.279Z,26.20
2023-01-17T05:37:50.671Z,21.40
2023-01-17T05:40:22.547Z,23.20
2023-01-17T05:42:51.108Z,22.40
2023-01-17T05:45:20.003Z,23.00
2023-01-17T05:47:48.372Z,20.10
2023-01-17T05:50:17.508Z,21.50
2023-01-17T05:52:55.408Z,20.30
2023-01-17T05:55:22.756Z,21.80
2023-01-17T05:57:50.525Z,20.40
2023-01-17T06:00:18.277Z,19.80
2023-01-17T06:02:46.222Z,22.10
2023-01-17T06:05:13.990Z,20.40
2023-01-17T06:07:44.171Z,18.30
2023-01-17T06:10:12.009Z,16.60
2023-01-17T06:12:39.056Z,15.10
2023-01-17T06:15:06.826Z,17.00
2023-01-17T06:17:33.970Z,18.20
2023-01-17T06:20:01.089Z,18.70
2023-01-17T06:22:28.263Z,19.60
2023-01-17T06:24:55.458Z,21.20
2023-01-17T06:27:22.573Z,21.90
2023-01-17T06:29:49.719Z,22.00
2023-01-17T06:32:16.869Z,21.60
2023-01-17T06:34:44.019Z,18.60
2023-01-17T06:37:11.077Z,17.00
2023-01-17T06:39:38.185Z,15.80
2023-01-17T06:42:05.340Z,15.10
2023-01-17T06:44:32.485Z,16.40
2023-01-17T06:46:59.761Z,16.70
2023-01-17T06:49:26.859Z,15.50
2023-01-17T06:51:53.972Z,13.90
2023-01-17T06:54:21.117Z,15.10
2023-01-17T06:56:48.165Z,14.10
2023-01-17T06:59:15.487Z,14.00
2023-01-17T07:01:42.680Z,14.40
2023-01-17T07:04:10.094Z,15.20
2023-01-17T07:06:37.470Z,15.10
2023-01-17T07:09:04.768Z,13.50
2023-01-17T07:11:31.994Z,14.20
2023-01-17T07:13:59.214Z,14.80
2023-01-17T07:16:26.409Z,14.50
2023-01-17T07:18:54.939Z,13.80
2023-01-17T07:21:22.780Z,14.70
2023-01-17T07:23:50.075Z,16.20
2023-01-17T07:26:17.516Z,14.20
2023-01-17T07:28:44.778Z,14.80
2023-01-17T07:31:12.078Z,16.50
2023-01-17T07:33:39.380Z,16.80
2023-01-17T07:36:07.616Z,15.60
2023-01-17T07:38:35.010Z,17.80
2023-01-17T07:41:02.357Z,18.80
2023-01-17T07:43:29.477Z,19.20
2023-01-17T07:45:56.535Z,17.00
2023-01-17T07:48:24.235Z,18.50
2023-01-17T07:50:55.902Z,19.00
2023-01-17T07:53:24.584Z,20.40
2023-01-17T07:55:51.944Z,15.80
2023-01-17T07:58:19.501Z,19.20
2023-01-17T08:00:46.867Z,22.70
2023-01-17T08:03:15.443Z,19.20
2023-01-17T08:05:43.556Z,21.70
2023-01-17T08:08:10.679Z,21.60
2023-01-17T08:10:37.795Z,19.30
2023-01-17T08:13:05.044Z,18.40
2023-01-17T08:15:32.467Z,18.60
2023-01-17T08:18:00.513Z,19.40
2023-01-17T08:20:28.204Z,17.70
2023-01-17T08:22:56.216Z,16.70
2023-01-17T08:25:24.384Z,19.70
2023-01-17T08:27:52.092Z,17.90
2023-01-17T08:30:19.291Z,18.00
2023-01-17T08:32:46.453Z,17.60
2023-01-17T08:35:14.409Z,19.80
2023-01-17T08:37:41.932Z,19.70
2023-01-17T08:40:11.230Z,17.90
2023-01-17T08:42:40.531Z,17.30
2023-01-17T08:45:08.971Z,17.50
2023-01-17T08:47:36.160Z,19.80
2023-01-17T08:50:07.016Z,17.30
2023-01-17T08:52:34.399Z,16.60
2023-01-17T08:55:01.561Z,17.50
2023-01-17T08:57:28.699Z,16.50
2023-01-17T08:59:55.827Z,16.30
2023-01-17T09:02:24.604Z,16.00
2023-01-17T09:04:51.972Z,18.10
2023-01-17T09:07:20.023Z,16.20
2023-01-17T09:09:47.318Z,16.40
2023-01-17T09:12:14.461Z,16.20
2023-01-17T09:14:41.612Z,14.80
2023-01-17T09:17:08.703Z,15.00
2023-01-17T09:19:35.915Z,16.00
2023-01-17T09:22:05.304Z,15.50
2023-01-17T09:24:33.538Z,16.40
2023-01-17T09:27:00.893Z,16.30
2023-01-17T09:29:28.239Z,17.10
2023-01-17T09:31:55.288Z,15.90
2023-01-17T09:34:24.401Z,15.50
2023-01-17T09:36:51.601Z,16.90
2023-01-17T09:39:18.985Z,15.10
2023-01-17T09:41:46.213Z,16.40
2023-01-17T09:44:24.635Z,14.90
2023-01-17T09:46:53.528Z,14.50
2023-01-17T09:49:29.732Z,15.30
2023-01-17T09:51:56.795Z,15.60
2023-01-17T09:54:25.504Z,16.10
2023-01-17T09:57:13.855Z,15.40
2023-01-17T10:00:16.334Z,15.30
2023-01-17T10:02:46.577Z,14.50
2023-01-17T10:05:27.269Z,14.80
2023-01-17T10:08:04.697Z,15.60
2023-01-17T10:10:34.948Z,15.80
2023-01-17T10:13:17.316Z,15.10
2023-01-17T10:16:25.584Z,15.10
2023-01-17T10:18:56.513Z,15.20
2023-01-17T10:21:39.005Z,14.90
2023-01-17T10:24:21.435Z,15.20
2023-01-17T10:26:53.411Z,15.20
2023-01-17T10:29:21.702Z,15.60
2023-01-17T10:31:54.602Z,15.30
2023-01-17T10:34:23.579Z,15.50
2023-01-17T10:36:53.317Z,15.30
2023-01-17T10:39:22.874Z,15.90
2023-01-17T10:42:00.971Z,16.40
2023-01-17T10:44:44.113Z,17.80
2023-01-17T10:47:11.591Z,15.60
2023-01-17T10:49:40.258Z,14.70
2023-01-17T10:52:43.836Z,15.70
2023-01-17T10:55:29.937Z,16.30
2023-01-17T10:57:58.300Z,14.80
2023-01-17T11:00:32.596Z,16.10
2023-01-17T11:03:00.051Z,15.50
2023-01-17T11:05:28.930Z,13.90
2023-01-17T11:08:04.133Z,17.60
2023-01-17T11:10:44.660Z,21.90
2023-01-17T11:13:32.104Z,17.40
2023-01-17T11:16:10.329Z,17.00
2023-01-17T11:18:41.044Z,15.00
2023-01-17T11:21:12.878Z,15.20
2023-01-17T11:23:42.827Z,17.00
2023-01-17T11:26:12.547Z,16.90
2023-01-17T11:28:40.627Z,16.90
2023-01-17T11:31:16.746Z,17.10
2023-01-17T11:33:45.482Z,16.60
2023-01-17T11:36:27.517Z,13.40
2023-01-17T11:38:55.517Z,13.60
2023-01-17T11:41:23.801Z,13.90
2023-01-17T11:43:55.266Z,15.50
2023-01-17T11:48:56.170Z,15.00
2023-01-17T11:51:31.870Z,15.00
2023-01-17T11:54:27.977Z,15.30
2023-01-17T11:56:59.094Z,15.30
2023-01-17T11:59:33.586Z,16.30
2023-01-17T12:02:32.084Z,16.80
2023-01-17T12:05:28.300Z,15.50
2023-01-17T12:07:59.619Z,16.90
2023-01-17T12:10:31.881Z,17.00
2023-01-17T12:13:23.840Z,17.60
2023-01-17T12:16:45.706Z,16.00
2023-01-17T12:19:39.109Z,16.50
2023-01-17T12:22:06.151Z,15.80
2023-01-17T12:25:04.540Z,16.80
2023-01-17T12:27:46.857Z,15.60
2023-01-17T12:30:38.670Z,15.70
2023-01-17T12:35:54.269Z,16.50
2023-01-17T12:38:32.832Z,16.80
2023-01-17T12:41:03.416Z,14.90
2023-01-17T12:43:37.295Z,17.70
2023-01-17T12:46:40.900Z,19.00
2023-01-17T12:49:58.435Z,18.90
2023-01-17T12:53:02.712Z,17.10
2023-01-17T12:56:04.467Z,17.40
2023-01-17T12:58:37.201Z,16.80
2023-01-17T13:01:29.924Z,19.60
2023-01-17T13:04:00.919Z,16.40
2023-01-17T13:06:32.628Z,18.50
2023-01-17T13:09:00.913Z,19.40
2023-01-17T13:11:33.640Z,19.70
2023-01-17T13:14:01.506Z,18.50
2023-01-17T13:16:51.174Z,19.70
2023-01-17T13:19:34.935Z,19.90
2023-01-17T13:22:03.580Z,20.00
2023-01-17T13:25:13.147Z,19.90
2023-01-17T13:28:03.435Z,19.30
2023-01-17T13:30:56.788Z,18.20
2023-01-17T13:33:36.369Z,20.10
2023-01-17T13:36:13.007Z,18.10
2023-01-17T13:38:43.033Z,18.80
2023-01-17T13:41:34.492Z,18.60
2023-01-17T13:44:20.240Z,20.30
2023-01-17T13:47:00.979Z,19.20
2023-01-17T13:49:37.270Z,17.60
2023-01-17T13:52:11.107Z,18.40
2023-01-17T13:54:45.341Z,17.10
2023-01-17T13:57:36.327Z,16.80
2023-01-17T14:00:16.449Z,16.00
2023-01-17T14:02:43.688Z,16.50
2023-01-17T14:05:21.509Z,16.60
2023-01-17T14:07:59.475Z,16.80
2023-01-17T14:10:43.151Z,19.30
2023-01-17T14:13:35.728Z,18.70
2023-01-17T14:16:24.438Z,16.70
2023-01-17T14:18:51.580Z,16.70
2023-01-17T14:21:23.539Z,17.50
2023-01-17T14:24:10.888Z,18.60
2023-01-17T14:26:45.413Z,21.40
2023-01-17T14:29:51.156Z,17.50
2023-01-17T14:32:20.460Z,19.70
2023-01-17T14:34:49.401Z,18.60
2023-01-17T14:37:33.406Z,20.00
2023-01-17T14:40:01.042Z,17.70
2023-01-17T14:42:29.763Z,19.50
2023-01-17T14:45:18.694Z,19.60
2023-01-17T14:47:46.207Z,19.60
2023-01-17T14:50:24.101Z,19.50
2023-01-17T14:53:13.676Z,19.20
2023-01-17T14:56:01.113Z,23.00
2023-01-17T14:58:33.311Z,21.70
2023-01-17T15:01:01.581Z,24.90
2023-01-17T15:03:30.549Z,25.60
2023-01-17T15:05:58.031Z,28.50
2023-01-17T15:08:29.617Z,27.20
2023-01-17T15:13:44.248Z,27.40
2023-01-17T15:16:29.675Z,25.40
2023-01-17T15:18:57.577Z,29.80
2023-01-17T15:21:33.017Z,28.10
2023-01-17T15:24:07.286Z,27.80
2023-01-17T15:26:35.587Z,27.50
2023-01-17T15:29:18.809Z,30.40
2023-01-17T15:31:58.343Z,38.00
2023-01-17T15:34:32.849Z,39.50
2023-01-17T15:37:02.897Z,32.90
2023-01-17T15:39:37.855Z,25.30
2023-01-17T15:42:06.828Z,25.60
2023-01-17T15:44:48.493Z,24.30
2023-01-17T15:47:28.670Z,23.40
2023-01-17T15:49:55.791Z,21.50
2023-01-17T15:52:22.903Z,36.40
2023-01-17T15:54:53.421Z,26.50
2023-01-17T15:57:24.679Z,32.80
2023-01-17T15:59:55.960Z,23.90
2023-01-17T16:02:43.388Z,24.40
2023-01-17T16:05:30.947Z,21.70
2023-01-17T16:08:23.271Z,20.50
2023-01-17T16:10:53.312Z,19.00
2023-01-17T16:13:20.924Z,20.60
2023-01-17T16:15:48.376Z,19.70
2023-01-17T16:18:16.429Z,19.20
2023-01-17T16:20:48.581Z,18.90
2023-01-17T16:23:16.742Z,19.70
2023-01-17T16:25:44.701Z,17.40
2023-01-17T16:28:11.964Z,19.50
2023-01-17T16:30:39.221Z,17.60
2023-01-17T16:33:06.361Z,20.40
2023-01-17T16:35:34.147Z,19.30
2023-01-17T16:38:05.836Z,20.30
2023-01-17T16:40:34.560Z,19.00
2023-01-17T16:43:01.771Z,19.40
2023-01-17T16:45:30.160Z,20.80
2023-01-17T16:47:57.357Z,16.90
2023-01-17T16:50:24.993Z,17.50
2023-01-17T16:52:52.682Z,17.30
2023-01-17T16:55:22.448Z,21.70
2023-01-17T16:57:50.426Z,19.50
2023-01-17T17:00:18.319Z,16.20
2023-01-17T17:02:45.709Z,18.50
2023-01-17T17:05:13.588Z,16.10
2023-01-17T17:07:43.196Z,17.10
2023-01-17T17:10:10.970Z,15.90
2023-01-17T17:12:38.194Z,17.00
2023-01-17T17:15:05.761Z,18.20
2023-01-17T17:17:37.239Z,15.00
2023-01-17T17:22:33.286Z,16.70
2023-01-17T17:25:00.418Z,16.50
2023-01-17T17:27:27.994Z,16.50
2023-01-17T17:29:55.180Z,15.60
2023-01-17T17:32:22.416Z,16.40
2023-01-17T17:34:51.219Z,15.50
2023-01-17T17:37:18.375Z,16.50
2023-01-17T17:39:45.584Z,16.70
2023-01-17T17:42:12.887Z,17.10
2023-01-17T17:44:40.031Z,18.60
2023-01-17T17:47:07.379Z,17.40
2023-01-17T17:49:34.481Z,18.20
2023-01-17T17:52:05.742Z,21.10
2023-01-17T17:54:33.081Z,32.30
2023-01-17T17:57:00.148Z,21.60
2023-01-17T17:59:27.431Z,18.00
2023-01-17T18:01:54.554Z,16.00
2023-01-17T18:04:22.255Z,16.00
2023-01-17T18:06:49.427Z,16.80
2023-01-17T18:09:16.718Z,16.60
2023-01-17T18:11:44.015Z,15.40
2023-01-17T18:14:13.164Z,17.50
2023-01-17T18:16:42.117Z,17.80
2023-01-17T18:19:16.331Z,16.30
2023-01-17T18:21:43.880Z,17.70
2023-01-17T18:24:12.687Z,17.20
2023-01-17T18:26:44.412Z,17.50
2023-01-17T18:29:14.855Z,17.20
2023-01-17T18:31:43.161Z,17.50
2023-01-17T18:34:14.876Z,17.20
2023-01-17T18:36:42.667Z,16.70
2023-01-17T18:39:14.772Z,17.90
2023-01-17T18:41:42.081Z,16.50
2023-01-17T18:44:09.497Z,15.90
2023-01-17T18:46:36.895Z,18.00
2023-01-17T18:49:04.794Z,16.50
2023-01-17T18:51:33.795Z,17.90
2023-01-17T18:54:05.337Z,17.40
2023-01-17T18:56:36.673Z,15.90
2023-01-17T18:59:05.843Z,16.10
2023-01-17T19:01:35.875Z,15.70
2023-01-17T19:04:04.487Z,14.40
2023-01-17T19:06:33.491Z,13.60
2023-01-17T19:09:00.602Z,13.60
2023-01-17T19:11:28.386Z,14.10
2023-01-17T19:13:55.924Z,15.20
2023-01-17T19:16:31.025Z,12.30
2023-01-17T19:19:02.077Z,13.50
2023-01-17T19:21:29.545Z,13.40
2023-01-17T19:23:57.096Z,12.20
2023-01-17T19:26:26.545Z,12.90
2023-01-17T19:28:54.917Z,12.90
2023-01-17T19:31:28.914Z,13.00
2023-01-17T19:33:57.624Z,12.60
2023-01-17T19:36:29.549Z,12.50
2023-01-17T19:39:04.461Z,11.70
2023-01-17T19:41:33.369Z,13.00
2023-01-17T19:44:02.182Z,12.90
2023-01-17T19:46:29.430Z,11.50
2023-01-17T19:48:56.861Z,12.60
2023-01-17T19:51:24.616Z,13.10
2023-01-17T19:53:51.774Z,12.30
2023-01-17T19:56:20.666Z,11.90
2023-01-17T19:58:47.932Z,11.70
2023-01-17T20:01:20.670Z,13.50
2023-01-17T20:03:49.012Z,12.40
2023-01-17T20:06:20.551Z,11.90
2023-01-17T20:11:19.614Z,13.20
2023-01-17T20:13:47.764Z,12.80
2023-01-17T20:16:15.804Z,12.90
2023-01-17T20:18:43.199Z,12.70
2023-01-17T20:21:15.716Z,12.80
2023-01-17T20:23:43.388Z,13.60
2023-01-17T20:26:11.086Z,13.20
2023-01-17T20:28:38.932Z,13.30
2023-01-17T20:31:12.959Z,12.20
2023-01-17T20:33:44.193Z,12.90
2023-01-17T20:36:12.869Z,12.90
2023-01-17T20:38:46.059Z,12.60
2023-01-17T20:41:21.014Z,13.80
2023-01-17T20:43:53.156Z,13.60
2023-01-17T20:46:21.727Z,13.10
2023-01-17T20:48:56.403Z,13.40
2023-01-17T20:51:25.124Z,13.70
2023-01-17T20:53:54.251Z,13.40
2023-01-17T20:56:22.003Z,12.70
2023-01-17T20:58:51.535Z,12.90
2023-01-17T21:01:19.867Z,12.40
2023-01-17T21:03:48.460Z,12.40
2023-01-17T21:06:16.447Z,11.70
2023-01-17T21:08:44.766Z,13.80
2023-01-17T21:11:13.874Z,13.50
2023-01-17T21:13:41.396Z,12.10
2023-01-17T21:16:09.868Z,12.40
2023-01-17T21:18:38.676Z,13.50
2023-01-17T21:21:14.523Z,13.50
2023-01-17T21:23:42.576Z,13.50
2023-01-17T21:26:12.246Z,12.30
2023-01-17T21:28:40.767Z,12.70
2023-01-17T21:31:23.189Z,12.80
2023-01-17T21:34:03.747Z,12.80
2023-01-17T21:36:33.267Z,12.00
2023-01-17T21:39:04.322Z,12.10
2023-01-17T21:41:33.754Z,12.10
2023-01-17T21:44:08.718Z,13.40
2023-01-17T21:46:38.353Z,13.00
2023-01-17T21:49:06.089Z,12.40
2023-01-17T21:51:52.848Z,12.30
2023-01-17T21:54:40.843Z,11.60
2023-01-17T21:57:27.594Z,13.50
2023-01-17T21:59:54.800Z,12.10
2023-01-17T22:02:21.944Z,12.60
2023-01-17T22:04:49.308Z,12.80
2023-01-17T22:07:16.807Z,12.60
2023-01-17T22:09:43.915Z,12.60
2023-01-17T22:12:10.967Z,14.50
2023-01-17T22:14:38.931Z,12.50
2023-01-17T22:17:06.095Z,13.70
2023-01-17T22:19:34.011Z,12.70
2023-01-17T22:22:01.452Z,13.20
2023-01-17T22:24:28.506Z,12.70
2023-01-17T22:26:55.659Z,13.00
2023-01-17T22:29:23.112Z,13.60
2023-01-17T22:31:50.372Z,13.30
2023-01-17T22:34:19.134Z,13.80
2023-01-17T22:36:46.353Z,13.80
2023-01-17T22:39:13.570Z,11.80
2023-01-17T22:41:40.655Z,11.80
2023-01-17T22:44:08.671Z,11.00
2023-01-17T22:46:41.485Z,12.80
2023-01-17T22:49:13.372Z,11.90
2023-01-17T22:51:40.425Z,11.70
2023-01-17T22:54:07.577Z,11.30
2023-01-17T22:56:35.139Z,12.90
2023-01-17T22:59:02.598Z,11.60
2023-01-17T23:01:31.182Z,12.30
2023-01-17T23:03:59.878Z,12.70
2023-01-17T23:06:31.696Z,12.40
2023-01-17T23:09:00.402Z,12.80
2023-01-17T23:11:41.770Z,12.40
2023-01-17T23:14:22.904Z,13.30
2023-01-17T23:17:10.911Z,12.00
2023-01-17T23:19:41.395Z,11.60
2023-01-17T23:22:16.472Z,10.50
2023-01-17T23:24:53.635Z,13.00
2023-01-17T23:27:50.085Z,13.00
2023-01-17T23:30:18.882Z,11.50
2023-01-17T23:33:06.629Z,10.90
2023-01-17T23:35:38.011Z,12.00
2023-01-17T23:38:28.453Z,11.90
2023-01-17T23:41:25.031Z,12.30
2023-01-17T23:43:53.677Z,11.50
2023-01-17T23:46:20.988Z,13.10
2023-01-17T23:48:48.189Z,12.70
2023-01-17T23:51:15.349Z,12.70
2023-01-17T23:53:42.690Z,11.80
2023-01-17T23:56:15.383Z,12.90
2023-01-17T23:58:42.518Z,12.80
